Time;durP1;ratioP1;P1;durP2;ratioP2;P2;SDS_P1;SDS_P2;PMS_P1;PMS_P2;Temp;Humidity;BMP_temperature;BMP_pressure;BME280_temperature;BME280_humidity;BME280_pressure;Samples;Min_cycle;Max_cycle;Signal;HPM_P1;HPM_P2
2022/04/16 00:01:04;;;;;;;7.03;4.35;;;;;;;14.94;36.40;100989.28;5147938;27;20962;-56
2022/04/16 00:03:31;;;;;;;10.35;4.10;;;;;;;15.02;35.94;100989.16;5148065;27;20408;-57
2022/04/16 00:05:59;;;;;;;8.50;3.90;;;;;;;15.01;36.51;100990.16;5167615;27;20943;-56
2022/04/16 00:08:28;;;;;;;9.70;4.00;;;;;;;14.77;37.37;100994.88;5167681;27;20446;-57
2022/04/16 00:10:56;;;;;;;6.50;3.90;;;;;;;14.80;36.93;100997.16;5167267;27;20438;-55
2022/04/16 00:13:24;;;;;;;5.90;3.50;;;;;;;14.84;35.98;100986.94;5167731;27;20410;-55
2022/04/16 00:15:53;;;;;;;7.17;4.03;;;;;;;14.84;35.69;100997.63;5148136;27;20415;-57
2022/04/16 00:19:23;;;;;;;7.15;4.00;;;;;;;14.73;36.50;100988.28;5110850;27;20400;-57
2022/04/16 00:21:50;;;;;;;9.27;4.10;;;;;;;14.74;36.64;100983.75;5106778;28;20408;-56
2022/04/16 00:24:17;;;;;;;6.78;3.80;;;;;;;14.74;36.46;100981.09;5106855;28;20419;-56
2022/04/16 00:26:46;;;;;;;8.88;3.78;;;;;;;14.68;36.29;100978.16;5106875;28;20443;-56
2022/04/16 00:30:05;;;;;;;9.73;3.65;;;;;;;14.61;36.82;100989.78;5066765;27;20408;-56
2022/04/16 00:32:32;;;;;;;7.80;4.00;;;;;;;14.64;37.11;100976.91;5065117;28;20515;-55
2022/04/16 00:35:02;;;;;;;6.90;3.83;;;;;;;14.66;36.85;100977.53;5066772;28;20490;-55
2022/04/16 00:37:29;;;;;;;7.65;3.92;;;;;;;14.64;37.01;100986.72;5066631;28;20445;-57
2022/04/16 00:39:56;;;;;;;7.07;4.00;;;;;;;14.56;37.37;100984.97;5066646;28;20459;-57
2022/04/16 00:42:23;;;;;;;6.50;3.97;;;;;;;14.58;37.32;100984.81;5066584;28;20453;-57
2022/04/16 00:44:50;;;;;;;5.23;4.03;;;;;;;14.53;37.11;100990.69;5066812;28;20422;-56
2022/04/16 00:47:18;;;;;;;7.60;4.40;;;;;;;14.57;36.55;100991.13;5066754;28;20419;-57
2022/04/16 00:49:45;;;;;;;8.50;4.35;;;;;;;14.59;36.55;100991.81;5066379;28;20432;-57
2022/04/16 00:52:12;;;;;;;7.82;4.50;;;;;;;14.59;35.94;100991.81;5066371;28;20940;-56
2022/04/16 00:54:39;;;;;;;9.23;4.70;;;;;;;14.57;35.87;100988.47;5066400;28;20420;-57
2022/04/16 00:57:07;;;;;;;8.77;4.90;;;;;;;14.63;35.91;100993.91;5066315;28;20447;-57
2022/04/16 00:59:33;;;;;;;11.55;5.90;;;;;;;14.64;35.73;100995.56;5066602;28;20411;-56
2022/04/16 01:04:05;;;;;;;8.83;5.57;;;;;;;14.81;34.92;101001.47;5106742;27;20408;-56
2022/04/16 01:06:38;;;;;;;9.30;5.25;;;;;;;14.90;34.27;101004.84;5107589;28;20436;-56
2022/04/16 01:09:05;;;;;;;9.90;5.75;;;;;;;14.98;34.06;101007.38;5107622;28;20440;-56
2022/04/16 01:11:33;;;;;;;8.40;5.70;;;;;;;15.14;33.60;101006.28;5107319;28;20405;-56
2022/04/16 01:16:35;;;;;;;8.90;5.30;;;;;;;15.32;33.26;101008.47;5093085;27;20463;-56
2022/04/16 01:19:03;;;;;;;8.43;5.47;;;;;;;15.46;32.72;101006.72;5086295;28;20418;-56
2022/04/16 01:21:30;;;;;;;8.70;5.20;;;;;;;15.56;32.44;101012.56;5085370;28;20422;-57
2022/04/16 01:23:58;;;;;;;8.55;5.05;;;;;;;15.65;32.38;101015.91;5086779;28;20438;-56
2022/04/16 01:27:48;;;;;;;7.75;5.03;;;;;;;15.66;32.48;101006.84;5118745;27;20404;-56
2022/04/16 01:30:18;;;;;;;6.63;4.82;;;;;;;15.73;32.21;101007.72;5101584;28;20447;-56
2022/04/16 01:32:55;;;;;;;9.10;5.30;;;;;;;15.77;32.24;101011.69;5097897;27;2045167;-57
2022/04/16 01:35:23;;;;;;;7.78;4.90;;;;;;;15.95;31.88;101007.66;5163800;27;20416;-55
2022/04/16 01:37:50;;;;;;;9.00;5.00;;;;;;;16.02;31.77;101008.50;5156588;27;20430;-56
2022/04/16 01:40:17;;;;;;;7.40;4.55;;;;;;;16.13;31.53;101015.16;5157161;27;20409;-56
2022/04/16 01:42:45;;;;;;;9.17;5.00;;;;;;;16.19;31.60;101017.03;5163934;27;20418;-56
2022/04/16 01:45:16;;;;;;;11.05;4.60;;;;;;;16.24;31.50;101014.56;5151028;27;20405;-55
2022/04/16 01:47:43;;;;;;;6.25;4.50;;;;;;;16.24;31.43;101017.25;5149021;27;20412;-56
2022/04/16 01:50:12;;;;;;;7.50;4.40;;;;;;;16.17;31.78;101011.03;5158737;27;20446;-56
2022/04/16 01:52:41;;;;;;;6.18;4.15;;;;;;;16.08;31.67;101014.91;5153734;27;20431;-57
2022/04/16 01:55:08;;;;;;;7.93;4.43;;;;;;;16.07;31.68;101015.94;5165092;27;20415;-56
2022/04/16 01:57:35;;;;;;;6.65;4.45;;;;;;;16.14;31.54;101019.50;5153950;27;20411;-56
2022/04/16 02:00:06;;;;;;;7.50;4.40;;;;;;;16.14;31.75;101016.81;5159177;27;20424;-56
2022/04/16 02:02:35;;;;;;;7.10;4.57;;;;;;;16.19;31.96;101027.75;5148843;27;21004;-57
2022/04/16 02:05:02;;;;;;;7.53;4.40;;;;;;;16.23;31.66;101015.59;5164765;27;20500;-56
2022/04/16 02:07:30;;;;;;;8.10;4.60;;;;;;;16.33;31.45;101021.41;5149140;27;20451;-57
2022/04/16 02:09:57;;;;;;;8.20;4.83;;;;;;;16.43;31.31;101018.34;5156710;27;20452;-57
2022/04/16 02:12:24;;;;;;;9.00;5.28;;;;;;;16.42;31.31;101028.25;5155901;27;20504;-57
2022/04/16 02:14:51;;;;;;;8.05;4.70;;;;;;;16.49;30.93;101024.75;5149070;27;20416;-57
2022/04/16 02:17:18;;;;;;;7.70;4.70;;;;;;;16.48;30.61;101026.59;5114914;27;20411;-56
2022/04/16 02:19:48;;;;;;;10.35;4.70;;;;;;;16.51;30.72;101031.56;5161185;27;20496;-57
2022/04/16 02:22:57;;;;;;;8.80;4.57;;;;;;;16.47;30.45;101029.47;5088524;27;21230;-57
2022/04/16 02:25:25;;;;;;;8.23;4.00;;;;;;;16.53;30.28;101025.97;5086067;28;21606;-56
2022/04/16 02:27:52;;;;;;;6.90;4.28;;;;;;;16.62;30.07;101027.47;5086912;28;20422;-57
2022/04/16 02:30:19;;;;;;;8.48;4.50;;;;;;;16.50;30.29;101029.09;5085923;28;20907;-57
2022/04/16 02:32:48;;;;;;;9.23;4.47;;;;;;;16.54;30.53;101031.13;5086466;28;20424;-57
2022/04/16 02:35:17;;;;;;;6.60;4.07;;;;;;;16.63;30.22;101031.78;5086548;28;20450;-57
2022/04/16 02:37:45;;;;;;;8.52;4.13;;;;;;;16.76;30.38;101030.97;5086327;28;20848;-57
2022/04/16 02:40:14;;;;;;;8.82;4.30;;;;;;;16.79;30.32;101030.59;5086557;28;20431;-57
2022/04/16 02:42:44;;;;;;;8.00;4.60;;;;;;;16.77;30.37;101027.28;5085734;28;20430;-57
2022/04/16 02:47:08;;;;;;;5.85;3.85;;;;;;;16.72;30.81;101037.78;5085222;28;20402;-56
2022/04/16 02:49:36;;;;;;;6.30;4.03;;;;;;;16.86;30.55;101047.53;5056976;28;20497;-57
2022/04/16 02:52:04;;;;;;;6.70;4.13;;;;;;;16.86;30.50;101050.19;5078059;28;20416;-57
2022/04/16 02:54:31;;;;;;;7.20;4.40;;;;;;;16.95;30.49;101050.84;5071611;28;20423;-57
2022/04/16 02:56:58;;;;;;;8.13;4.25;;;;;;;16.95;30.39;101045.47;5082689;28;20418;-57
2022/04/16 02:59:27;;;;;;;7.47;4.45;;;;;;;16.81;30.83;101047.28;5070532;28;20442;-57
2022/04/16 03:01:54;;;;;;;6.57;4.20;;;;;;;16.62;30.92;101041.66;5078986;28;20813;-57
2022/04/16 03:04:23;;;;;;;5.82;4.13;;;;;;;16.71;30.86;101046.81;5075880;28;20424;-57
2022/04/16 03:06:51;;;;;;;8.60;4.53;;;;;;;16.84;30.82;101044.22;5071017;28;20503;-57
2022/04/16 03:11:43;;;;;;;7.35;4.20;;;;;;;16.83;30.80;101050.59;5120923;27;20404;-57
2022/04/16 03:19:43;;;;;;;10.13;4.55;;;;;;;16.85;31.17;101029.78;5078112;28;20411;-55
2022/04/16 03:24:02;;;;;;;7.70;4.78;;;;;;;16.94;32.02;101028.59;5107756;27;2037244;-56
2022/04/16 03:26:29;;;;;;;10.07;4.70;;;;;;;16.95;31.78;101042.81;5148087;27;20409;-56
2022/04/16 03:28:56;;;;;;;9.50;4.68;;;;;;;16.95;31.86;101038.25;5147722;27;20445;-55
2022/04/16 03:31:24;;;;;;;9.35;4.68;;;;;;;16.84;32.01;101038.06;5147608;27;20444;-57
2022/04/16 03:33:51;;;;;;;8.57;4.67;;;;;;;16.78;32.00;101047.66;5147119;27;20929;-57
2022/04/16 03:36:18;;;;;;;9.27;4.70;;;;;;;16.84;31.93;101048.75;5147056;27;20906;-56
2022/04/16 03:38:45;;;;;;;7.68;4.55;;;;;;;16.91;31.74;101054.97;5146970;27;20424;-57
2022/04/16 03:41:13;;;;;;;8.65;4.50;;;;;;;16.98;31.68;101053.94;5147038;27;20451;-56
2022/04/16 03:43:40;;;;;;;7.68;4.43;;;;;;;17.02;31.53;101062.38;5147746;27;20428;-56
2022/04/16 03:46:07;;;;;;;8.43;4.95;;;;;;;16.97;31.74;101062.16;5111702;27;20488;-55
2022/04/16 03:48:34;;;;;;;8.07;4.72;;;;;;;17.10;31.56;101064.84;5147837;27;20794;-57
2022/04/16 03:51:01;;;;;;;7.30;4.72;;;;;;;17.11;31.38;101069.19;5147915;27;20410;-55
2022/04/16 03:53:29;;;;;;;8.75;4.47;;;;;;;17.07;31.72;101069.78;5147294;27;20405;-56
2022/04/16 04:01:25;;;;;;;7.63;4.30;;;;;;;17.02;32.02;101081.13;5147120;27;20932;-56
2022/04/16 04:03:52;;;;;;;10.57;4.55;;;;;;;17.16;31.59;101087.31;5147578;27;20482;-56
2022/04/16 04:06:19;;;;;;;8.75;4.65;;;;;;;17.08;31.67;101091.00;5146921;27;20417;-57
2022/04/16 04:08:46;;;;;;;10.43;4.70;;;;;;;17.08;31.93;101085.66;5147313;27;20420;-56
2022/04/16 04:11:13;;;;;;;8.10;4.50;;;;;;;17.11;31.87;101100.50;5147305;27;20495;-56
2022/04/16 04:13:41;;;;;;;8.43;4.40;;;;;;;17.12;31.67;101105.63;5147195;27;20919;-56
2022/04/16 04:16:08;;;;;;;9.55;4.40;;;;;;;17.21;31.65;101100.91;5146796;27;20437;-55
2022/04/16 04:18:35;;;;;;;7.67;4.40;;;;;;;17.10;31.84;101099.66;5146188;27;20451;-55
2022/04/16 04:21:02;;;;;;;12.18;4.80;;;;;;;17.11;31.87;101113.91;5147573;27;20441;-55
2022/04/16 04:23:29;;;;;;;8.75;4.50;;;;;;;17.19;32.04;101108.34;5146985;27;20429;-56
2022/04/16 04:25:56;;;;;;;8.55;4.50;;;;;;;17.09;32.10;101108.75;5147315;27;20414;-56
2022/04/16 04:28:23;;;;;;;6.70;4.65;;;;;;;17.26;32.05;101103.00;5147521;27;20499;-56
2022/04/16 04:30:51;;;;;;;7.80;4.45;;;;;;;17.20;32.34;101113.50;5147182;27;20423;-57
2022/04/16 04:33:18;;;;;;;6.13;4.20;;;;;;;17.18;32.36;101115.56;5145441;27;20405;-56
2022/04/16 04:35:45;;;;;;;8.05;4.13;;;;;;;17.23;32.45;101117.59;5133112;27;20437;-56
2022/04/16 04:38:12;;;;;;;8.07;4.50;;;;;;;17.26;32.55;101125.25;5133336;27;20445;-56
2022/04/16 04:40:39;;;;;;;10.07;4.40;;;;;;;17.30;32.72;101123.81;5132869;27;20420;-56
2022/04/16 04:43:06;;;;;;;10.23;4.63;;;;;;;17.33;33.53;101127.94;5133261;27;20432;-55
2022/04/16 04:45:33;;;;;;;9.98;4.10;;;;;;;17.38;33.25;101139.69;5132729;27;20780;-55
2022/04/16 04:48:02;;;;;;;7.82;4.15;;;;;;;17.27;33.41;101129.59;5132727;27;20442;-61
2022/04/16 04:50:29;;;;;;;9.57;4.10;;;;;;;17.26;33.45;101135.16;5132875;27;20449;-56
2022/04/16 04:52:56;;;;;;;9.40;4.63;;;;;;;17.32;33.28;101137.00;5132946;27;20441;-56
2022/04/16 04:55:23;;;;;;;9.57;4.90;;;;;;;17.26;33.70;101135.97;5132305;27;20519;-55
2022/04/16 04:57:54;;;;;;;7.63;4.60;;;;;;;17.31;33.85;101130.81;5132860;27;20420;-56
2022/04/16 05:00:21;;;;;;;8.10;4.57;;;;;;;17.38;34.06;101137.00;5132205;27;20922;-56
2022/04/16 05:02:48;;;;;;;7.37;4.10;;;;;;;17.26;34.61;101133.28;5132014;27;21084;-55
2022/04/16 05:05:17;;;;;;;7.75;4.10;;;;;;;17.16;35.65;101132.84;5131978;27;20464;-56
2022/04/16 05:07:45;;;;;;;9.52;5.00;;;;;;;17.15;36.55;101133.91;5096610;27;20500;-56
2022/04/16 05:10:12;;;;;;;7.20;4.70;;;;;;;17.15;37.13;101134.72;5132423;27;20446;-55
2022/04/16 05:12:39;;;;;;;8.57;4.45;;;;;;;17.20;37.24;101128.75;5132316;27;20954;-55
2022/04/16 05:15:07;;;;;;;9.48;4.60;;;;;;;17.16;37.44;101114.94;5132100;27;20488;-56
2022/04/16 05:17:37;;;;;;;7.75;4.82;;;;;;;17.18;37.66;101120.91;5132050;27;20429;-56
2022/04/16 05:20:06;;;;;;;11.00;5.07;;;;;;;17.24;37.95;101137.22;5132460;27;20558;-56
2022/04/16 05:22:35;;;;;;;10.10;5.60;;;;;;;17.00;38.46;101128.72;5131942;27;20436;-56
2022/04/16 05:25:02;;;;;;;8.35;5.60;;;;;;;16.84;39.08;101140.63;5132319;27;20441;-55
2022/04/16 05:27:30;;;;;;;9.75;5.70;;;;;;;16.72;39.45;101145.69;5131398;27;20420;-57
2022/04/16 05:30:12;;;;;;;9.85;5.45;;;;;;;16.56;39.38;101132.63;5131882;27;20417;-56
2022/04/16 05:32:40;;;;;;;10.93;6.07;;;;;;;16.40;39.67;101139.16;5131963;27;20417;-57
2022/04/16 05:35:09;;;;;;;8.50;5.63;;;;;;;16.61;39.43;101138.22;5131769;27;20891;-56
2022/04/16 05:37:38;;;;;;;10.65;5.50;;;;;;;16.63;39.17;101139.66;5130961;27;20410;-56
2022/04/16 05:40:06;;;;;;;8.65;5.25;;;;;;;16.60;39.32;101155.28;5131826;27;20919;-56
2022/04/16 05:42:33;;;;;;;10.82;5.60;;;;;;;16.62;39.70;101166.66;5131513;27;20452;-56
2022/04/16 05:45:01;;;;;;;10.45;5.68;;;;;;;16.76;39.65;101157.66;5131246;27;20448;-55
2022/04/16 05:47:29;;;;;;;8.45;5.68;;;;;;;16.64;40.35;101148.53;5130596;27;20421;-56
2022/04/16 05:49:56;;;;;;;8.10;5.25;;;;;;;16.57;40.52;101155.72;5131589;27;20993;-55
2022/04/16 05:52:23;;;;;;;9.48;5.05;;;;;;;16.52;40.90;101161.66;5131548;27;20480;-56
2022/04/16 05:54:52;;;;;;;9.55;5.03;;;;;;;16.66;41.06;101162.56;5130590;27;20414;-56
2022/04/16 05:57:20;;;;;;;7.35;4.70;;;;;;;16.71;40.36;101160.09;5129214;27;20993;-58
2022/04/16 05:59:47;;;;;;;8.88;5.07;;;;;;;16.84;39.45;101153.19;5129056;27;20800;-56
2022/04/16 06:02:16;;;;;;;8.63;4.70;;;;;;;16.81;38.84;101157.03;5129654;27;20416;-57
2022/04/16 06:04:43;;;;;;;9.57;4.85;;;;;;;16.83;39.61;101157.69;5130429;27;20430;-55
2022/04/16 06:07:09;;;;;;;8.70;5.03;;;;;;;16.72;40.10;101166.28;5130969;27;20921;-56
2022/04/16 06:09:37;;;;;;;11.53;6.07;;;;;;;16.86;41.10;101170.69;5131167;27;20425;-56
2022/04/16 06:12:06;;;;;;;8.45;5.80;;;;;;;16.85;40.95;101179.72;5131337;27;20421;-55
2022/04/16 06:14:33;;;;;;;11.80;5.75;;;;;;;17.02;40.68;101172.19;5130373;27;20410;-56
2022/04/16 06:17:00;;;;;;;10.80;5.75;;;;;;;16.99;41.59;101169.91;5129182;27;20441;-57
2022/04/16 06:19:27;;;;;;;9.90;6.15;;;;;;;16.92;42.60;101177.09;5129283;27;20442;-57
2022/04/16 06:23:53;;;;;;;10.35;6.22;;;;;;;16.66;43.95;101180.47;5100286;27;20460;-56
2022/04/16 06:26:21;;;;;;;10.90;6.10;;;;;;;16.59;44.06;101185.78;5077345;28;20918;-59
2022/04/16 06:28:48;;;;;;;10.50;6.03;;;;;;;16.44;44.59;101178.69;5077024;28;20421;-58
2022/04/16 06:31:59;;;;;;;8.02;5.95;;;;;;;16.55;44.39;101168.47;5085595;28;20459;-59
2022/04/16 06:34:27;;;;;;;11.07;6.32;;;;;;;16.58;44.57;101165.38;5077478;28;20921;-60
2022/04/16 06:36:54;;;;;;;10.35;7.72;;;;;;;16.63;44.52;101169.09;5067697;28;20427;-59
2022/04/16 06:39:21;;;;;;;11.63;6.95;;;;;;;16.73;44.45;101181.31;5053044;28;20424;-59
2022/04/16 06:41:48;;;;;;;9.85;6.38;;;;;;;16.55;44.77;101185.34;5055376;28;20421;-58
2022/04/16 06:44:15;;;;;;;7.68;6.13;;;;;;;16.44;45.01;101178.69;5054956;28;20850;-59
2022/04/16 06:46:42;;;;;;;10.18;6.50;;;;;;;16.47;44.73;101176.66;5056125;28;20531;-59
2022/04/16 06:49:11;;;;;;;8.70;5.80;;;;;;;16.42;44.54;101186.09;5052957;28;20464;-58
2022/04/16 06:51:38;;;;;;;10.02;5.82;;;;;;;16.38;44.53;101181.34;5051012;28;20517;-60
2022/04/16 06:54:05;;;;;;;8.88;6.05;;;;;;;16.47;44.30;101187.34;5054234;28;20424;-59
2022/04/16 06:56:32;;;;;;;11.68;6.28;;;;;;;16.54;44.52;101181.00;5059040;28;20408;-59
2022/04/16 06:58:59;;;;;;;11.10;6.75;;;;;;;16.56;44.40;101181.63;5062616;28;20416;-59
2022/04/16 07:01:25;;;;;;;11.48;6.95;;;;;;;16.57;44.56;101185.16;5061316;28;20937;-59
2022/04/16 07:03:53;;;;;;;9.60;6.13;;;;;;;16.60;44.49;101185.59;5062414;28;20431;-59
2022/04/16 07:06:21;;;;;;;9.43;6.20;;;;;;;16.46;44.69;101194.56;5060667;28;20805;-59
2022/04/16 07:08:48;;;;;;;8.05;5.85;;;;;;;16.44;44.86;101184.06;5058335;28;20422;-59
2022/04/16 07:11:15;;;;;;;10.77;6.30;;;;;;;16.60;44.08;101182.06;5063226;28;20427;-59
2022/04/16 07:13:42;;;;;;;10.18;6.70;;;;;;;16.71;43.57;101184.19;5062890;28;20481;-59
2022/04/16 07:16:09;;;;;;;9.35;6.72;;;;;;;16.60;43.67;101185.59;5062221;28;20498;-58
2022/04/16 07:18:36;;;;;;;12.02;6.72;;;;;;;16.71;43.23;101175.31;5062604;28;20416;-59
2022/04/16 07:21:03;;;;;;;9.10;6.00;;;;;;;16.75;42.74;101169.38;5060144;28;20415;-60
2022/04/16 07:23:31;;;;;;;13.05;5.40;;;;;;;17.03;42.22;101175.69;5061197;28;20943;-59
2022/04/16 07:25:58;;;;;;;7.80;5.00;;;;;;;17.17;41.44;101163.97;5052849;28;20461;-59
2022/04/16 07:28:26;;;;;;;12.27;5.40;;;;;;;17.10;42.02;101163.13;5056709;28;20455;-59
2022/04/16 07:30:53;;;;;;;12.88;5.85;;;;;;;17.03;41.89;101170.31;5069006;28;20935;-60
2022/04/16 07:33:21;;;;;;;10.82;5.60;;;;;;;17.11;41.56;101168.28;5079317;28;20429;-60
2022/04/16 07:35:48;;;;;;;11.70;5.85;;;;;;;17.20;41.46;101179.66;5079352;28;20479;-60
2022/04/16 07:38:15;;;;;;;10.48;5.25;;;;;;;17.45;40.90;101174.56;5076149;28;20427;-59
2022/04/16 07:40:44;;;;;;;8.05;4.32;;;;;;;17.49;40.70;101172.28;5080818;28;20497;-59
2022/04/16 07:43:11;;;;;;;13.43;4.53;;;;;;;17.61;40.70;101170.66;5063126;28;20414;-59
2022/04/16 07:45:38;;;;;;;10.15;5.30;;;;;;;17.58;40.90;101174.56;5061639;28;20488;-59
2022/04/16 07:48:06;;;;;;;7.13;4.50;;;;;;;17.70;40.33;101168.56;5064565;28;20816;-59
2022/04/16 07:50:33;;;;;;;9.45;4.68;;;;;;;17.93;39.79;101176.22;5066787;28;20967;-60
2022/04/16 07:53:00;;;;;;;7.78;4.40;;;;;;;17.90;39.78;101177.50;5065166;28;20442;-59
2022/04/16 07:55:31;;;;;;;10.40;4.60;;;;;;;17.92;39.88;101178.09;5068052;28;20849;-58
2022/04/16 07:57:59;;;;;;;7.22;4.05;;;;;;;18.01;39.55;101181.41;5067706;28;20850;-59
2022/04/16 08:00:27;;;;;;;7.47;4.05;;;;;;;18.21;39.18;101175.19;5066845;28;20441;-59
2022/04/16 08:02:53;;;;;;;7.35;4.25;;;;;;;18.35;39.13;101171.44;5066497;28;20426;-59
2022/04/16 08:05:20;;;;;;;12.23;5.10;;;;;;;18.53;38.69;101168.91;5065983;28;20425;-59
2022/04/16 08:07:47;;;;;;;9.60;4.13;;;;;;;18.60;38.60;101168.91;5068769;28;20908;-59
2022/04/16 08:10:14;;;;;;;70.68;36.63;;;;;;;18.35;39.05;101155.34;5068121;28;20455;-59
2022/04/16 08:12:41;;;;;;;10.55;5.50;;;;;;;18.58;38.31;101154.81;5061258;28;20417;-59
2022/04/16 08:15:11;;;;;;;8.60;4.75;;;;;;;18.71;38.02;101162.03;5064509;28;20424;-59
2022/04/16 08:17:38;;;;;;;9.30;4.63;;;;;;;18.70;37.98;101157.69;5059659;28;20415;-59
2022/04/16 08:20:07;;;;;;;8.70;4.65;;;;;;;18.80;37.73;101151.84;5069709;28;20458;-60
2022/04/16 08:22:35;;;;;;;10.40;4.82;;;;;;;19.04;37.25;101156.53;5067022;28;20442;-60
2022/04/16 08:30:24;;;;;;;9.45;5.05;;;;;;;19.15;37.19;101149.63;5064259;28;20416;-58
2022/04/16 08:32:51;;;;;;;9.00;5.10;;;;;;;19.25;37.06;101143.81;5064421;28;20452;-59
2022/04/16 08:35:18;;;;;;;10.38;6.38;;;;;;;19.65;36.23;101138.94;5065443;28;20484;-60
2022/04/16 08:37:46;;;;;;;9.18;5.63;;;;;;;19.81;36.12;101132.22;5062584;28;20443;-60
2022/04/16 08:40:14;;;;;;;8.95;5.53;;;;;;;19.99;35.95;101128.72;5063671;28;20965;-60
2022/04/16 08:42:43;;;;;;;11.27;6.68;;;;;;;20.31;35.41;101122.38;5065384;28;20977;-59
2022/04/16 08:45:12;;;;;;;9.60;5.50;;;;;;;20.59;34.93;101116.44;5064153;28;20440;-59
2022/04/16 08:47:41;;;;;;;10.55;5.57;;;;;;;20.80;34.70;101113.31;5063077;28;20932;-61
2022/04/16 08:50:11;;;;;;;11.43;4.80;;;;;;;21.16;34.11;101116.94;5066223;28;20424;-60
2022/04/16 08:52:39;;;;;;;7.55;4.97;;;;;;;21.56;33.80;101115.50;5066174;28;20435;-60
2022/04/16 08:55:09;;;;;;;12.15;6.70;;;;;;;21.94;33.15;101108.81;5061052;28;20485;-60
2022/04/16 08:57:37;;;;;;;14.88;7.57;;;;;;;22.08;33.33;101109.41;5064983;28;20416;-60
2022/04/16 09:00:04;;;;;;;10.47;6.37;;;;;;;22.03;33.31;101112.81;5065602;28;20503;-59
2022/04/16 09:02:31;;;;;;;17.60;7.18;;;;;;;22.31;33.21;101092.38;5065559;28;20478;-60
2022/04/16 09:05:05;;;;;;;13.32;8.23;;;;;;;22.50;33.25;101099.22;5066028;28;20493;-59
2022/04/16 09:07:33;;;;;;;13.18;9.38;;;;;;;22.00;34.56;101102.47;5065760;28;20478;-58
2022/04/16 09:10:10;;;;;;;15.95;9.80;;;;;;;22.12;34.73;101110.56;5062107;28;20424;-58
2022/04/16 09:12:39;;;;;;;16.30;11.32;;;;;;;22.35;34.35;101100.81;5059195;28;20412;-59
2022/04/16 09:15:07;;;;;;;13.98;11.85;;;;;;;22.17;35.11;101085.56;5059652;28;20408;-60
2022/04/16 09:17:34;;;;;;;20.30;13.35;;;;;;;21.92;35.13;101100.16;5061586;28;20443;-59
2022/04/16 09:20:04;;;;;;;20.80;14.25;;;;;;;22.21;35.12;101106.44;5059680;28;20435;-58
2022/04/16 09:22:32;;;;;;;18.87;15.20;;;;;;;22.34;34.87;101105.38;5059348;28;20412;-59
2022/04/16 09:25:00;;;;;;;23.35;15.13;;;;;;;21.92;35.32;101125.25;5065703;28;20436;-58
2022/04/16 09:27:27;;;;;;;18.00;14.93;;;;;;;22.05;34.91;101112.56;5065174;28;20412;-58
2022/04/16 09:29:54;;;;;;;16.48;14.45;;;;;;;22.22;34.82;101112.66;5064916;28;20435;-59
2022/04/16 09:32:25;;;;;;;16.50;14.65;;;;;;;22.28;34.73;101117.97;5065549;28;20914;-59
2022/04/16 09:34:53;;;;;;;17.30;14.03;;;;;;;22.32;34.79;101110.19;5065774;28;20407;-58
2022/04/16 09:37:23;;;;;;;16.13;13.20;;;;;;;22.45;34.31;101112.63;5065480;28;20444;-58
2022/04/16 09:39:50;;;;;;;16.67;12.90;;;;;;;22.46;34.50;101113.47;5061371;28;20837;-58
2022/04/16 09:42:27;;;;;;;13.93;11.57;;;;;;;22.79;33.72;101101.91;5052336;28;20421;-59
2022/04/16 09:44:54;;;;;;;14.52;11.75;;;;;;;22.95;33.07;101103.03;5051468;28;20436;-59
2022/04/16 09:47:25;;;;;;;13.15;10.25;;;;;;;23.04;32.74;101106.16;5052315;28;20949;-60
2022/04/16 09:49:53;;;;;;;13.00;9.60;;;;;;;23.17;32.39;101105.06;5051874;28;20428;-59
2022/04/16 09:52:24;;;;;;;10.65;8.95;;;;;;;23.34;31.89;101097.78;5051870;28;20937;-59
2022/04/16 09:54:55;;;;;;;10.98;7.63;;;;;;;23.34;31.67;101105.09;5051651;28;20786;-59
2022/04/16 09:57:25;;;;;;;11.90;8.33;;;;;;;23.13;31.41;101103.91;5052211;28;20440;-60
2022/04/16 09:59:55;;;;;;;13.70;7.50;;;;;;;22.86;31.65;101109.91;5052165;28;20412;-58
2022/04/16 10:02:23;;;;;;;10.75;6.70;;;;;;;22.82;31.71;101111.44;5051827;28;20479;-59
2022/04/16 10:04:51;;;;;;;9.43;6.00;;;;;;;22.81;31.20;101097.09;5051061;28;20428;-59
2022/04/16 10:07:17;;;;;;;13.77;6.80;;;;;;;22.22;31.68;101105.38;5050737;28;20937;-60
2022/04/16 10:09:53;;;;;;;8.00;5.90;;;;;;;22.37;31.69;101112.19;5050803;28;20930;-60
2022/04/16 10:15:11;;;;;;;8.65;5.82;;;;;;;22.27;31.23;101110.09;5031690;28;20504;-60
2022/04/16 10:17:42;;;;;;;9.00;5.75;;;;;;;22.38;30.93;101111.94;5031351;28;20413;-60
2022/04/16 10:20:11;;;;;;;8.40;6.10;;;;;;;22.70;30.56;101119.59;5031583;28;20927;-60
2022/04/16 10:22:39;;;;;;;8.02;5.68;;;;;;;22.48;30.19;101114.84;5031724;28;20410;-62
2022/04/16 10:25:08;;;;;;;8.52;6.43;;;;;;;22.63;29.75;101114.31;5031800;28;20492;-62
2022/04/16 10:27:41;;;;;;;9.93;7.28;;;;;;;22.52;29.87;101099.78;5031270;28;20410;-65
2022/04/16 10:30:11;;;;;;;29.05;7.88;;;;;;;22.75;29.69;101114.28;5031515;28;20437;-59
2022/04/16 10:32:40;;;;;;;8.60;7.25;;;;;;;22.89;29.26;101104.00;5031591;28;20441;-65
2022/04/16 10:35:12;;;;;;;20.98;7.15;;;;;;;22.80;29.32;101100.88;5031491;28;20507;-66
2022/04/16 10:37:40;;;;;;;8.73;6.90;;;;;;;22.60;28.75;101101.31;5031637;28;20418;-65
2022/04/16 10:40:20;;;;;;;8.15;6.57;;;;;;;22.68;28.73;101102.81;5031182;28;20419;-65
2022/04/16 10:42:49;;;;;;;8.68;7.18;;;;;;;22.67;28.76;101111.97;5031163;28;20784;-65
2022/04/16 10:45:16;;;;;;;10.77;7.57;;;;;;;22.55;28.92;101109.31;5031011;28;20939;-65
2022/04/16 10:47:44;;;;;;;8.77;6.83;;;;;;;22.57;28.92;101109.06;5031252;28;20934;-65
2022/04/16 10:50:17;;;;;;;10.48;7.57;;;;;;;22.60;28.84;101117.53;5030898;28;20965;-64
2022/04/16 10:52:53;;;;;;;11.07;7.90;;;;;;;22.74;29.76;101115.34;5030073;28;21673;-64
2022/04/16 10:55:29;;;;;;;17.27;8.55;;;;;;;23.15;32.02;101108.00;5030843;28;20418;-61
2022/04/16 10:57:59;;;;;;;12.48;8.25;;;;;;;23.10;29.41;101113.31;5030917;28;20446;-62
2022/04/16 11:00:36;;;;;;;9.63;8.13;;;;;;;23.36;30.21;101109.16;5030703;28;20446;-62
2022/04/16 11:03:10;;;;;;;10.40;9.30;;;;;;;20.88;40.23;101104.06;5031332;28;20415;-63
2022/04/16 11:05:37;;;;;;;11.00;8.90;;;;;;;20.43;39.79;101121.41;5031011;28;20418;-61
2022/04/16 11:08:06;;;;;;;9.52;8.52;;;;;;;20.62;37.25;101111.47;5030926;28;20414;-66
2022/04/16 11:10:34;;;;;;;10.27;9.18;;;;;;;20.97;38.09;101107.25;5030483;28;20912;-66
2022/04/16 11:13:02;;;;;;;10.30;9.18;;;;;;;21.19;35.54;101105.69;5030894;28;20453;-67
2022/04/16 11:15:29;;;;;;;9.03;7.93;;;;;;;21.27;34.92;101093.75;5030430;28;20448;-67
2022/04/16 11:17:58;;;;;;;8.93;7.22;;;;;;;21.43;33.80;101105.75;5030337;28;20453;-67
2022/04/16 11:20:26;;;;;;;9.40;7.00;;;;;;;21.64;33.08;101107.06;5030414;28;20410;-67
2022/04/16 11:22:54;;;;;;;9.80;6.82;;;;;;;21.60;33.54;101110.47;5030629;28;20493;-66
2022/04/16 11:25:23;;;;;;;7.72;6.35;;;;;;;21.61;32.77;101110.25;5030705;28;20424;-66
2022/04/16 11:36:12;;;;;;;9.02;6.35;;;;;;;21.63;32.36;101113.53;5029976;28;20977;-64
2022/04/16 11:38:41;;;;;;;7.60;6.80;;;;;;;21.80;34.70;101105.53;5029996;28;20420;-64
2022/04/16 11:41:10;;;;;;;7.47;6.68;;;;;;;21.65;32.48;101105.19;5030100;28;20498;-63
2022/04/16 11:43:47;;;;;;;7.37;6.57;;;;;;;21.58;32.65;101110.69;5029996;28;20415;-64
2022/04/16 11:46:15;;;;;;;9.40;6.78;;;;;;;21.46;32.57;101104.47;5030137;28;20902;-64
2022/04/16 11:48:45;;;;;;;6.30;5.70;;;;;;;21.58;32.54;101111.50;5029946;28;20501;-64
2022/04/16 11:51:12;;;;;;;7.32;5.93;;;;;;;21.56;32.41;101108.22;5029640;28;20433;-64
2022/04/16 11:53:44;;;;;;;7.60;5.68;;;;;;;21.72;32.73;101101.31;5045067;28;20449;-64
2022/04/16 11:56:11;;;;;;;7.78;5.43;;;;;;;21.67;32.01;101098.50;5029789;28;20457;-64
2022/04/16 11:58:39;;;;;;;5.82;4.90;;;;;;;21.75;31.99;101095.47;5029793;28;20509;-64
2022/04/16 12:01:08;;;;;;;6.43;4.47;;;;;;;21.74;31.62;101098.38;5030319;28;20411;-64
2022/04/16 12:03:37;;;;;;;5.82;4.13;;;;;;;21.80;31.73;101096.63;5029553;28;20410;-64
2022/04/16 12:06:08;;;;;;;6.03;3.80;;;;;;;22.01;31.45;101087.91;5029855;28;20406;-64
2022/04/16 12:08:36;;;;;;;7.13;4.60;;;;;;;21.98;31.41;101082.19;5029781;28;20421;-64
2022/04/16 12:11:03;;;;;;;6.32;3.67;;;;;;;22.14;31.26;101084.13;5029864;28;20430;-63